Weymouth, MA

8:04 PM EDT on August 28, 2014 (GMT -0400)
Wyman Road | Change Station
CLOSE
Current Station
Personal Weather Station
Location: Abington, MA
Elevation: 154 ft
Nearby Weather Stations

Elev 154 ft 42.13 °N, 70.95 °W | Updated 4 minutes ago

Clear
Clear
70.9 °F
Feels Like 77 °F
N
0.0
Wind Variable Wind from NNW
Gusts 1.0 mph

Today
High -- | Low -- °F
--% Chance of Precip.
Yesterday
High -- | Low -- °F
Precip. -- in
6:04 AM 7:24 PM
Waxing Crescent, 10% visible
Pressure 29.91 in
Visibility 10.0 miles
Clouds Clear
Heat Index 77 °F
Dew Point 50 °F
Humidity 47%
Rainfall 0.00 in
Snow Depth Not available.
UV 0 out of 12
Pollen 10.00 out of 12
PM2.5 Good
Flu Activity Not available.
METAR KOWD 282353Z 32004KT 10SM CLR 21/09 A2991 RMK AO2 SLP127 T02060089 10278 20200 53026

More Conditions Fewer Conditions

Pressure 29.91 in
Visibility 10.0 miles
Clouds Clear
Heat Index 77 °F
Dew Point 50 °F
Humidity 47%
Rainfall 0.00 in
Snow Depth Not available.
UV 0 out of 12
Pollen 10.00 out of 12
PM2.5 Good
Flu Activity Not available.
METAR KOWD 282353Z 32004KT 10SM CLR 21/09 A2991 RMK AO2 SLP127 T02060089 10278 20200 53026

More Conditions Fewer Conditions

10-Day Weather Forecast

Almanac

Astronomy

Aug. 28, 2014 Rise Set
Actual Time 6:04 AM EDT 7:24 PM EDT
Civil Twilight 5:35 AM EDT 7:53 PM EDT
Nautical Twilight 5:00 AM EDT 8:27 PM EDT
Astronomical Twilight 4:23 AM EDT 9:04 PM EDT
Moon 8:58 AM EDT (8/28) 8:42 PM EDT (8/28)
Length of Visible Light 14h 17m
Length of Day
13h 19m
Tomorrow will be 2m 41s shorter.
Waxing Crescent, 10% of the Moon is Illuminated
Today
Waxing Crescent
Sep 2
First Quarter
Sep 8
Full
Sep 15
Last Quarter
Sep 24
New

Today's Extremes

State Highs State Lows

Community

WunderPhotos

Upload Photos

1,748,106 photos uploaded!

Nearby

Air Quality

  Air Quality AQ Index Pollutant
Yesterday Moderate
OZONE
Yesterday Good
PM2.5
Current Good
PM2.5
Thursday Good
PM2.5
Thursday Good
OZONE
Friday Good
PM2.5
Friday Good
OZONE

Snow Depth

Station Depth Elevation
No new snow has been reported.

Earthquake Activity

City Distance Mag. Time & Date
No recent earthquake activity has been reported nearby.
Minimum magnitude displayed is 2.5.

Coastal Water Temperatures

Place Temperature
Boston, MA 70.0 °F
Providence, RI 72.0 °F
Fall River, MA 73.9 °F
Conimicut Light, RI 73.9 °F

Nearby Weather Stations